Aviation Digital Data Service (ADDS)

Output produced by METARs form (1610 UTC 23 September 2020)
found at http://aviationweather.gov/metar/data/
 
KLCH 231552Z 18010G18KT 9SM FEW010 BKN024 OVC042 25/25 A2997 RMK INFORMATION DELTA CURRENT, USING GPS RWY 15 APP
KLCH 231403Z 2314/2412 17007KT 5SM -SHRA VCTS SCT008 BKN020CB OVC070 
     TEMPO 2314/2318 VRB14G22KT 1SM +SHRA OVC008 
     FM231800 23010KT P6SM VCSH OVC015 
     FM232100 27009KT P6SM VCSH OVC010 
     FM240200 33008KT P6SM BKN015 OVC025